Time;durP1;ratioP1;P1;durP2;ratioP2;P2;SDS_P1;SDS_P2;PMS_P1;PMS_P2;Temp;Humidity;BMP_temperature;BMP_pressure;BME280_temperature;BME280_humidity;BME280_pressure;Samples;Min_cycle;Max_cycle;Signal;HPM_P1;HPM_P2
2024/01/07 00:02:25;;;;;;;;;;;;;;;-1.28;100.00;101253.88;4899684;29;20018;-76
2024/01/07 00:04:50;;;;;;;;;;;;;;;-1.30;100.00;101250.50;4896456;29;19974;-76
2024/01/07 00:07:15;;;;;;;;;;;;;;;-1.27;100.00;101252.91;4896863;29;20545;-76
2024/01/07 00:09:40;;;;;;;;;;;;;;;-1.26;100.00;101259.91;4898298;29;19931;-76
2024/01/07 00:12:06;;;;;;;;;;;;;;;-1.26;100.00;101257.25;4899145;29;19927;-76
2024/01/07 00:14:31;;;;;;;;;;;;;;;-1.27;100.00;101264.31;4897796;29;19923;-76
2024/01/07 00:16:56;;;;;;;;;;;;;;;-1.24;100.00;101273.84;4898108;29;19971;-76
2024/01/07 00:19:24;;;;;;;;;;;;;;;-1.26;100.00;101273.94;4898666;29;19979;-76
2024/01/07 00:21:50;;;;;;;;;;;;;;;-1.29;100.00;101278.59;4897372;29;19923;-76
2024/01/07 00:24:15;;;;;;;;;;;;;;;-1.23;100.00;101283.44;4899449;29;20292;-76
2024/01/07 00:26:40;;;;;;;;;;;;;;;-1.23;100.00;101278.13;4899549;29;20284;-76
2024/01/07 00:29:05;;;;;;;;;;;;;;;-1.23;100.00;101278.13;4898421;29;19974;-76
2024/01/07 00:31:31;;;;;;;;;;;;;;;-1.22;100.00;101272.75;4881918;29;19924;-76
2024/01/07 00:33:56;;;;;;;;;;;;;;;-1.24;100.00;101279.13;4899716;29;19979;-76
2024/01/07 00:36:21;;;;;;;;;;;;;;;-1.28;100.00;101286.41;4900060;29;19923;-76
2024/01/07 00:38:46;;;;;;;;;;;;;;;-1.30;100.00;101284.84;4902139;29;19930;-75
2024/01/07 00:41:12;;;;;;;;;;;;;;;-1.32;100.00;101287.56;4917063;29;19924;-76
2024/01/07 00:43:37;;;;;;;;;;;;;;;-1.28;100.00;101290.84;4913947;29;20371;-75
2024/01/07 00:46:03;;;;;;;;;;;;;;;-1.25;100.00;101293.28;4898557;29;19939;-75
2024/01/07 00:48:28;;;;;;;;;;;;;;;-1.22;100.00;101290.41;4899232;29;19924;-75
2024/01/07 00:50:54;;;;;;;;;;;;;;;-1.23;100.00;101288.72;4898186;29;19940;-77
2024/01/07 00:53:20;;;;;;;;;;;;;;;-1.21;100.00;101289.44;4897732;29;19935;-76
2024/01/07 00:55:45;;;;;;;;;;;;;;;-1.23;100.00;101286.94;4898838;29;19919;-76
2024/01/07 00:58:10;;;;;;;;;;;;;;;-1.24;100.00;101293.16;4897187;29;19934;-77
2024/01/07 01:00:38;;;;;;;;;;;;;;;-1.23;100.00;101302.78;4892903;29;20563;-77
2024/01/07 01:03:03;;;;;;;;;;;;;;;-1.20;100.00;101306.16;4898287;29;19978;-76
2024/01/07 01:05:28;;;;;;;;;;;;;;;-1.23;100.00;101304.56;4897991;29;19928;-76
2024/01/07 01:07:53;;;;;;;;;;;;;;;-1.20;100.00;101309.63;4902301;29;19923;-75
2024/01/07 01:10:19;;;;;;;;;;;;;;;-1.20;100.00;101308.81;4912024;29;19930;-76
2024/01/07 01:12:45;;;;;;;;;;;;;;;-1.22;100.00;101314.19;4906441;29;19923;-76
2024/01/07 01:15:10;;;;;;;;;;;;;;;-1.22;100.00;101312.38;4891175;29;19971;-76
2024/01/07 01:17:35;;;;;;;;;;;;;;;-1.25;100.00;101317.06;4897567;29;19927;-75
2024/01/07 01:20:00;;;;;;;;;;;;;;;-1.30;100.00;101324.44;4897682;29;20328;-75
2024/01/07 01:22:26;;;;;;;;;;;;;;;-1.33;100.00;101327.31;4897984;29;20394;-74
2024/01/07 01:24:52;;;;;;;;;;;;;;;-1.35;100.00;101329.19;4880603;29;20372;-75
2024/01/07 01:27:18;;;;;;;;;;;;;;;-1.37;100.00;101330.16;4897776;29;19930;-74
2024/01/07 01:29:43;;;;;;;;;;;;;;;-1.42;100.00;101334.06;4897856;29;19919;-75
2024/01/07 01:32:08;;;;;;;;;;;;;;;-1.41;100.00;101333.13;4896939;29;20014;-74
2024/01/07 01:34:33;;;;;;;;;;;;;;;-1.41;100.00;101344.50;4897282;29;19974;-74
2024/01/07 01:36:58;;;;;;;;;;;;;;;-1.47;100.00;101342.31;4898141;29;20288;-75
2024/01/07 01:39:24;;;;;;;;;;;;;;;-1.49;100.00;101352.13;4913640;29;19946;-73
2024/01/07 01:41:49;;;;;;;;;;;;;;;-1.47;100.00;101350.25;4916527;29;19927;-75
2024/01/07 01:44:14;;;;;;;;;;;;;;;-1.49;100.00;101348.63;4901563;29;19923;-75
2024/01/07 01:46:39;;;;;;;;;;;;;;;-1.50;100.00;101349.63;4901248;29;19979;-74
2024/01/07 01:49:05;;;;;;;;;;;;;;;-1.50;100.00;101354.91;4901783;29;19931;-75
2024/01/07 01:51:30;;;;;;;;;;;;;;;-1.53;100.00;101361.22;4883472;29;20006;-74
2024/01/07 01:53:57;;;;;;;;;;;;;;;-1.47;100.00;101355.53;4884587;29;19935;-75
2024/01/07 01:56:22;;;;;;;;;;;;;;;-1.51;100.00;101361.13;4903348;29;19919;-73
2024/01/07 01:58:48;;;;;;;;;;;;;;;-1.54;100.00;101367.44;4902334;29;19939;-73
2024/01/07 02:01:13;;;;;;;;;;;;;;;-1.56;100.00;101364.91;4902343;29;19919;-74
2024/01/07 02:03:38;;;;;;;;;;;;;;;-1.52;100.00;101373.47;4903622;29;19949;-73
2024/01/07 02:06:03;;;;;;;;;;;;;;;-1.55;100.00;101368.41;4905594;29;19927;-74
2024/01/07 02:08:31;;;;;;;;;;;;;;;-1.57;100.00;101370.28;4906630;29;19966;-72
2024/01/07 02:10:57;;;;;;;;;;;;;;;-1.54;100.00;101372.72;4918508;29;19983;-73
2024/01/07 02:13:22;;;;;;;;;;;;;;;-1.56;100.00;101371.97;4900992;29;19923;-73
2024/01/07 02:15:47;;;;;;;;;;;;;;;-1.57;100.00;101376.44;4901347;29;19986;-74
2024/01/07 02:18:12;;;;;;;;;;;;;;;-1.60;100.00;101373.16;4902398;29;19930;-74
2024/01/07 02:20:44;;;;;;;;;;;;;;;-1.59;100.00;101386.25;4902662;29;19920;-74
2024/01/07 02:23:09;;;;;;;;;;;;;;;-1.63;100.00;101382.13;4894860;29;20376;-73
2024/01/07 02:25:35;;;;;;;;;;;;;;;-1.69;100.00;101387.84;4900887;29;20067;-73
2024/01/07 02:28:00;;;;;;;;;;;;;;;-1.69;100.00;101395.75;4899213;29;20387;-73
2024/01/07 02:30:27;;;;;;;;;;;;;;;-1.71;100.00;101401.13;4900196;29;20105;-73
2024/01/07 02:32:52;;;;;;;;;;;;;;;-1.72;100.00;101388.88;4900409;29;20371;-73
2024/01/07 02:35:20;;;;;;;;;;;;;;;-1.72;100.00;101407.34;4899028;29;19923;-73
2024/01/07 02:37:45;;;;;;;;;;;;;;;-1.71;100.00;101395.00;4900292;29;20377;-74
2024/01/07 02:40:11;;;;;;;;;;;;;;;-1.76;100.00;101392.66;4901029;29;19924;-74
2024/01/07 02:42:36;;;;;;;;;;;;;;;-1.78;100.00;101399.84;4899478;29;19931;-74
2024/01/07 02:45:01;;;;;;;;;;;;;;;-1.75;100.00;101398.78;4898920;29;20361;-74
2024/01/07 02:47:26;;;;;;;;;;;;;;;-1.76;100.00;101405.84;4900924;29;20390;-74
2024/01/07 02:49:54;;;;;;;;;;;;;;;-1.79;100.00;101407.84;4899333;29;20376;-73
2024/01/07 02:52:19;;;;;;;;;;;;;;;-1.84;100.00;101416.91;4888033;29;19958;-73
2024/01/07 02:54:44;;;;;;;;;;;;;;;-1.84;100.00;101411.66;4900822;29;20015;-73
2024/01/07 02:57:09;;;;;;;;;;;;;;;-1.83;100.00;101415.16;4897733;29;19923;-73
2024/01/07 02:59:35;;;;;;;;;;;;;;;-1.84;100.00;101416.09;4899456;29;19952;-73
2024/01/07 03:02:00;;;;;;;;;;;;;;;-1.85;100.00;101415.22;4899900;29;19923;-73
2024/01/07 03:04:28;;;;;;;;;;;;;;;-1.83;100.00;101412.50;4899225;29;19923;-73
2024/01/07 03:06:53;;;;;;;;;;;;;;;-1.84;100.00;101422.19;4899161;29;19931;-73
2024/01/07 03:09:18;;;;;;;;;;;;;;;-1.77;100.00;101424.44;4899558;29;19923;-73
2024/01/07 03:11:44;;;;;;;;;;;;;;;-1.78;100.00;101422.75;4899505;29;20039;-74
2024/01/07 03:14:09;;;;;;;;;;;;;;;-1.78;100.00;101420.97;4897973;29;20393;-73
2024/01/07 03:16:34;;;;;;;;;;;;;;;-1.78;100.00;101426.25;4883277;29;19930;-73
2024/01/07 03:19:01;;;;;;;;;;;;;;;-1.78;100.00;101435.94;4900365;29;19924;-73
2024/01/07 03:21:27;;;;;;;;;;;;;;;-1.81;100.00;101433.50;4899701;29;20398;-73
2024/01/07 03:23:52;;;;;;;;;;;;;;;-1.79;100.00;101440.41;4899068;29;19928;-73
2024/01/07 03:26:17;;;;;;;;;;;;;;;-1.79;100.00;101448.31;4899201;29;19931;-72
2024/01/07 03:28:43;;;;;;;;;;;;;;;-1.82;100.00;101435.31;4899675;29;19923;-73
2024/01/07 03:31:18;;;;;;;;;;;;;;;-1.81;100.00;101444.94;4898941;29;19919;-72
2024/01/07 03:33:43;;;;;;;;;;;;;;;-1.89;100.00;101447.22;4891976;29;19924;-72
2024/01/07 03:36:12;;;;;;;;;;;;;;;-1.88;100.00;101456.81;4899341;29;20257;-73
2024/01/07 03:38:37;;;;;;;;;;;;;;;-1.93;100.00;101446.56;4898880;29;19923;-73
2024/01/07 03:41:05;;;;;;;;;;;;;;;-1.88;100.00;101443.63;4899398;29;19932;-73
2024/01/07 03:43:31;;;;;;;;;;;;;;;-1.88;100.00;101451.53;4899337;29;19931;-73
2024/01/07 03:45:56;;;;;;;;;;;;;;;-1.85;100.00;101451.34;4898643;29;20273;-74
2024/01/07 03:48:21;;;;;;;;;;;;;;;-1.89;100.00;101449.84;4897964;29;19923;-75
2024/01/07 03:50:46;;;;;;;;;;;;;;;-1.93;100.00;101457.13;4898236;29;19971;-75
2024/01/07 03:53:12;;;;;;;;;;;;;;;-1.91;100.00;101459.66;4898190;29;19938;-76
2024/01/07 03:55:37;;;;;;;;;;;;;;;-1.93;100.00;101454.50;4904407;23;19936;-76
2024/01/07 03:58:03;;;;;;;;;;;;;;;-1.93;100.00;101456.25;4904541;23;19939;-76
2024/01/07 04:00:29;;;;;;;;;;;;;;;-1.93;100.00;101458.91;4899107;29;19927;-76
2024/01/07 04:02:54;;;;;;;;;;;;;;;-1.88;100.00;101459.47;4899105;29;19916;-75
2024/01/07 04:08:16;;;;;;;;;;;;;;;-1.91;100.00;101465.78;5218648;23;19935;-78
2024/01/07 04:19:24;;;;;;;;;;;;;;;-1.93;100.00;101480.00;4860159;29;20333;-77
2024/01/07 04:21:50;;;;;;;;;;;;;;;-1.90;100.00;101474.53;4862932;29;19928;-77
2024/01/07 04:24:33;;;;;;;;;;;;;;;-1.90;100.00;101490.38;4865031;29;19948;-76
2024/01/07 04:27:13;;;;;;;;;;;;;;;-1.88;100.00;101492.00;4872591;29;19924;-77
2024/01/07 04:29:50;;;;;;;;;;;;;;;-1.91;100.00;101488.69;4881345;29;19908;-77
2024/01/07 04:32:31;;;;;;;;;;;;;;;-1.94;100.00;101496.81;4862896;29;19955;-77
2024/01/07 04:35:15;;;;;;;;;;;;;;;-1.91;100.00;101488.69;4860607;29;19972;-77
2024/01/07 04:40:51;;;;;;;;;;;;;;;-1.90;100.00;101506.22;4860929;29;19935;-77
2024/01/07 04:43:16;;;;;;;;;;;;;;;-1.91;100.00;101508.00;4842427;29;19959;-77
2024/01/07 04:45:42;;;;;;;;;;;;;;;-1.91;100.00;101507.16;4861004;29;19955;-77
2024/01/07 04:48:22;;;;;;;;;;;;;;;-1.92;100.00;101513.38;4860049;29;19953;-77
2024/01/07 04:50:53;;;;;;;;;;;;;;;-1.92;100.00;101508.97;4861019;29;20389;-77
2024/01/07 04:53:37;;;;;;;;;;;;;;;-1.94;100.00;101515.28;4871716;29;19914;-77
2024/01/07 04:59:16;;;;;;;;;;;;;;;-1.92;100.00;101513.38;4860131;29;19940;-77
2024/01/07 05:01:50;;;;;;;;;;;;;;;-1.89;100.00;101521.09;4861253;29;19928;-78
2024/01/07 05:10:05;;;;;;;;;;;;;;;-1.96;100.00;101538.28;4857232;29;19935;-78
2024/01/07 05:12:45;;;;;;;;;;;;;;;-1.95;100.00;101551.38;4896938;23;19938;-77
2024/01/07 05:15:19;;;;;;;;;;;;;;;-1.99;100.00;101549.88;4890047;29;19956;-76
2024/01/07 05:17:45;;;;;;;;;;;;;;;-1.96;100.00;101552.31;4890230;29;20380;-77
2024/01/07 05:23:36;;;;;;;;;;;;;;;-1.99;100.00;101558.66;4914225;29;19948;-77
2024/01/07 05:26:04;;;;;;;;;;;;;;;-2.04;100.00;101552.81;4909504;29;19966;-78
2024/01/07 05:28:44;;;;;;;;;;;;;;;-2.06;100.00;101559.13;4897894;29;19930;-77
2024/01/07 05:34:11;;;;;;;;;;;;;;;-2.07;100.00;101568.81;4820907;29;19978;-78
2024/01/07 05:36:58;;;;;;;;;;;;;;;-2.08;100.00;101575.03;4820467;29;19925;-78
2024/01/07 05:39:48;;;;;;;;;;;;;;;-2.07;100.00;101581.19;4864303;29;19930;-78
2024/01/07 05:42:38;;;;;;;;;;;;;;;-2.08;100.00;101582.94;4898335;29;19971;-78
2024/01/07 05:45:11;;;;;;;;;;;;;;;-2.07;100.00;101582.00;4898719;29;19931;-78
2024/01/07 05:47:37;;;;;;;;;;;;;;;-2.07;100.00;101582.00;4900718;29;19931;-78
2024/01/07 05:50:02;;;;;;;;;;;;;;;-2.09;100.00;101589.16;4898580;29;19923;-78
2024/01/07 05:55:24;;;;;;;;;;;;;;;-2.13;100.00;101588.53;4870787;29;19939;-77
2024/01/07 05:57:52;;;;;;;;;;;;;;;-2.15;100.00;101603.59;4896519;29;19924;-77
2024/01/07 06:00:39;;;;;;;;;;;;;;;-2.14;100.00;101599.19;4898039;29;20368;-77
2024/01/07 06:03:22;;;;;;;;;;;;;;;-2.11;100.00;101591.06;4897323;29;20333;-77
2024/01/07 06:05:54;;;;;;;;;;;;;;;-2.16;100.00;101601.06;4896296;29;19934;-78
2024/01/07 06:08:52;;;;;;;;;;;;;;;-2.18;100.00;101603.78;4896837;29;20300;-77
2024/01/07 06:11:52;;;;;;;;;;;;;;;-2.17;100.00;101617.84;4896359;29;19919;-77
2024/01/07 06:18:01;;;;;;;;;;;;;;;-2.17;100.00;101620.47;4896671;29;19973;-77
2024/01/07 06:21:09;;;;;;;;;;;;;;;-2.17;100.00;101625.75;4895446;29;19931;-77
2024/01/07 06:32:52;;;;;;;;;;;;;;;-2.22;100.00;101648.91;5451202;23;19931;-76
2024/01/07 06:42:05;;;;;;;;;;;;;;;-2.26;100.00;101665.84;4899824;29;19933;-77
2024/01/07 06:45:15;;;;;;;;;;;;;;;-2.26;100.00;101668.50;4899982;29;20397;-76
2024/01/07 06:51:30;;;;;;;;;;;;;;;-2.25;100.00;101683.38;4899720;29;20505;-77
2024/01/07 06:54:29;;;;;;;;;;;;;;;-2.29;100.00;101686.19;4899635;29;20372;-77
2024/01/07 06:57:38;;;;;;;;;;;;;;;-2.34;100.00;101693.56;4891713;29;20390;-78
2024/01/07 07:00:04;;;;;;;;;;;;;;;-2.32;100.00;101691.69;4900484;29;19954;-77
2024/01/07 07:02:39;;;;;;;;;;;;;;;-2.32;100.00;101694.31;4899303;29;20418;-77
2024/01/07 07:05:11;;;;;;;;;;;;;;;-2.32;100.00;101696.09;4897632;29;19924;-77
2024/01/07 07:07:48;;;;;;;;;;;;;;;-2.35;100.00;101702.41;4897680;29;19930;-77
2024/01/07 07:10:23;;;;;;;;;;;;;;;-2.38;100.00;101699.94;4894775;29;19923;-78
2024/01/07 07:12:50;;;;;;;;;;;;;;;-2.32;100.00;101707.50;4893458;29;19934;-77
2024/01/07 07:15:15;;;;;;;;;;;;;;;-2.35;100.00;101712.97;4896240;29;20365;-78
2024/01/07 07:17:41;;;;;;;;;;;;;;;-2.34;100.00;101714.66;4896963;29;19934;-78
2024/01/07 07:20:15;;;;;;;;;;;;;;;-2.35;100.00;101723.50;4897125;29;19927;-78
2024/01/07 07:22:40;;;;;;;;;;;;;;;-2.39;100.00;101737.81;4898342;29;19927;-79
2024/01/07 07:25:22;;;;;;;;;;;;;;;-2.36;100.00;101736.75;4897134;29;20299;-78
2024/01/07 07:27:47;;;;;;;;;;;;;;;-2.41;100.00;101744.94;4897300;29;19924;-77
2024/01/07 07:30:19;;;;;;;;;;;;;;;-2.40;100.00;101744.00;4894065;29;20357;-77
2024/01/07 07:32:54;;;;;;;;;;;;;;;-2.39;100.00;101756.25;4897169;29;20311;-77
2024/01/07 07:35:19;;;;;;;;;;;;;;;-2.44;100.00;101760.94;4897160;29;20295;-78
2024/01/07 07:37:44;;;;;;;;;;;;;;;-2.45;100.00;101764.53;4896555;29;19930;-75
2024/01/07 07:40:12;;;;;;;;;;;;;;;-2.44;100.00;101760.94;4897004;29;19927;-79
2024/01/07 07:42:38;;;;;;;;;;;;;;;-2.40;100.00;101770.38;4898118;29;20292;-77
2024/01/07 07:45:03;;;;;;;;;;;;;;;-2.39;100.00;101768.63;4878531;29;20388;-79
2024/01/07 07:47:28;;;;;;;;;;;;;;;-2.41;100.00;101775.75;4897551;29;19935;-78
2024/01/07 07:49:54;;;;;;;;;;;;;;;-2.47;100.00;101777.81;4897040;29;20415;-79
2024/01/07 07:52:21;;;;;;;;;;;;;;;-2.46;100.00;101771.59;4897464;29;20368;-77
2024/01/07 07:57:15;;;;;;;;;;;;;;;-2.48;100.00;101791.09;4896902;29;19927;-77
2024/01/07 07:59:55;;;;;;;;;;;;;;;-2.51;100.00;101784.19;4899876;29;19946;-78
2024/01/07 08:02:36;;;;;;;;;;;;;;;-2.52;100.00;101794.84;4901292;29;19967;-78
2024/01/07 08:05:23;;;;;;;;;;;;;;;-2.53;100.00;101801.03;4898897;29;19936;-78
2024/01/07 08:07:48;;;;;;;;;;;;;;;-2.53;100.00;101806.31;4903447;29;19927;-78
2024/01/07 08:20:02;;;;;;;;;;;;;;;;;;;;;
2024/01/07 11:37:55;;;;;;;;;;;;;;;-1.60;85.43;102022.69;4823033;29;20888;-79
2024/01/07 11:58:51;;;;;;;;;;;;;;;-1.40;80.23;102038.19;4858629;29;19968;-79
2024/01/07 12:01:37;;;;;;;;;;;;;;;-1.40;78.86;102040.84;4857666;29;19956;-80
2024/01/07 12:25:11;;;;;;;;;;;;;;;-1.25;77.66;102070.81;5043583;23;19991;-79
2024/01/07 12:30:53;;;;;;;;;;;;;;;0.74;74.54;102067.31;4897301;29;19988;-79
2024/01/07 12:33:41;;;;;;;;;;;;;;;1.09;66.39;102060.59;4891924;29;19927;-77
2024/01/07 12:39:10;;;;;;;;;;;;;;;-0.17;71.72;102044.91;4893085;29;20030;-78
2024/01/07 12:53:50;;;;;;;;;;;;;;;-1.42;77.17;102074.44;4858388;29;19924;-78
2024/01/07 12:56:22;;;;;;;;;;;;;;;-1.51;78.29;102067.03;4895732;29;19923;-75
2024/01/07 12:58:50;;;;;;;;;;;;;;;-1.55;78.17;102066.34;4897236;29;19935;-75
2024/01/07 13:01:18;;;;;;;;;;;;;;;-1.50;78.09;102081.94;4888106;29;19963;-76
2024/01/07 13:03:43;;;;;;;;;;;;;;;-1.56;78.25;102084.91;4899995;29;19942;-81
2024/01/07 13:06:08;;;;;;;;;;;;;;;-1.51;77.18;102087.31;4909924;29;19931;-78
2024/01/07 13:08:34;;;;;;;;;;;;;;;-1.49;77.01;102086.28;4907526;29;19928;-78
2024/01/07 13:11:00;;;;;;;;;;;;;;;-1.40;77.64;102092.81;4895002;29;19923;-79
2024/01/07 13:13:30;;;;;;;;;;;;;;;-1.43;77.27;102093.88;4898754;29;21329;-81
2024/01/07 13:15:56;;;;;;;;;;;;;;;-1.41;76.67;102094.59;4895216;29;19947;-81
2024/01/07 13:18:25;;;;;;;;;;;;;;;-0.96;76.80;102099.09;4895355;29;19927;-82
2024/01/07 13:20:51;;;;;;;;;;;;;;;-0.79;75.87;102095.44;4893391;29;19992;-81
2024/01/07 13:23:19;;;;;;;;;;;;;;;-0.97;75.20;102098.25;4897046;29;20443;-81
2024/01/07 13:25:57;;;;;;;;;;;;;;;-0.81;71.68;102114.06;4862907;29;19931;-81
2024/01/07 13:28:41;;;;;;;;;;;;;;;-1.11;71.50;102112.28;4893477;29;19923;-81
2024/01/07 13:31:24;;;;;;;;;;;;;;;-1.37;72.32;102111.16;4893980;29;20419;-81
2024/01/07 13:33:51;;;;;;;;;;;;;;;-1.27;73.65;102104.38;4894836;29;20345;-81
2024/01/07 13:36:19;;;;;;;;;;;;;;;-1.07;73.27;102118.22;4899977;23;19979;-81
2024/01/07 13:38:46;;;;;;;;;;;;;;;-1.19;73.46;102113.66;4896882;29;20447;-81
2024/01/07 13:41:31;;;;;;;;;;;;;;;-1.24;74.27;102108.66;4898772;29;19927;-81
2024/01/07 13:43:57;;;;;;;;;;;;;;;-1.24;74.61;102119.22;4880580;29;20329;-80
2024/01/07 13:46:25;;;;;;;;;;;;;;;-1.30;75.87;102123.06;4903444;23;20331;-80
2024/01/07 13:49:07;;;;;;;;;;;;;;;-1.31;74.41;102121.34;4896166;23;20217;-80
2024/01/07 13:51:57;;;;;;;;;;;;;;;-1.28;74.97;102125.63;4860798;29;19928;-80
2024/01/07 13:54:41;;;;;;;;;;;;;;;-1.09;71.87;102126.25;4861348;29;19972;-79
2024/01/07 13:57:15;;;;;;;;;;;;;;;-1.22;73.52;102136.69;4860030;29;20126;-79
2024/01/07 13:59:40;;;;;;;;;;;;;;;-1.20;74.17;102136.59;4860359;29;19924;-80
2024/01/07 14:02:23;;;;;;;;;;;;;;;-1.29;74.75;102130.03;4861329;29;19939;-80
2024/01/07 14:04:55;;;;;;;;;;;;;;;-1.37;74.89;102106.69;4860821;29;20015;-80
2024/01/07 14:07:28;;;;;;;;;;;;;;;-1.33;76.10;102128.53;4856228;29;20020;-80
2024/01/07 14:09:57;;;;;;;;;;;;;;;-1.37;76.38;102122.56;4854771;29;20363;-80
2024/01/07 14:12:54;;;;;;;;;;;;;;;-1.52;76.75;102134.00;4834620;29;19935;-82
2024/01/07 14:15:44;;;;;;;;;;;;;;;-1.48;76.68;102139.94;4859376;29;19935;-78
2024/01/07 14:18:47;;;;;;;;;;;;;;;-1.50;77.30;102147.97;4858756;29;19924;-78
2024/01/07 14:21:50;;;;;;;;;;;;;;;-1.55;77.52;102156.16;4854763;29;19935;-80
2024/01/07 14:24:20;;;;;;;;;;;;;;;-1.51;78.70;102156.81;4855754;29;19928;-80
2024/01/07 14:26:57;;;;;;;;;;;;;;;-1.58;78.19;102161.59;4860558;29;20004;-78
2024/01/07 14:29:31;;;;;;;;;;;;;;;-1.59;79.82;102167.81;4860214;29;19920;-78
2024/01/07 14:32:14;;;;;;;;;;;;;;;-1.58;80.29;102168.66;4859428;29;19928;-78
2024/01/07 14:34:50;;;;;;;;;;;;;;;-1.63;80.15;102174.19;4855012;29;19983;-78
2024/01/07 14:37:15;;;;;;;;;;;;;;;-1.66;81.50;102184.91;4856822;29;20019;-78
2024/01/07 14:39:46;;;;;;;;;;;;;;;-1.69;81.25;102187.75;4858990;29;20019;-79
2024/01/07 14:42:18;;;;;;;;;;;;;;;-1.71;81.67;102171.97;4859100;29;19953;-79
2024/01/07 14:44:44;;;;;;;;;;;;;;;-1.71;79.40;102181.69;4859960;29;19927;-79
2024/01/07 14:47:21;;;;;;;;;;;;;;;-1.68;79.97;102184.16;4858548;29;19928;-79
2024/01/07 14:49:53;;;;;;;;;;;;;;;-1.64;80.03;102190.13;4854261;29;20033;-79
2024/01/07 14:52:50;;;;;;;;;;;;;;;-1.73;80.64;102189.69;4858628;29;20011;-79
2024/01/07 14:55:19;;;;;;;;;;;;;;;-1.67;79.20;102204.31;4822964;29;19924;-78
2024/01/07 14:57:49;;;;;;;;;;;;;;;-1.72;80.07;102188.75;4823717;29;19932;-78
2024/01/07 15:00:23;;;;;;;;;;;;;;;-1.69;81.81;102209.72;4858161;29;19924;-79
2024/01/07 15:02:54;;;;;;;;;;;;;;;-1.68;82.38;102207.94;4853592;29;19931;-79
2024/01/07 15:05:20;;;;;;;;;;;;;;;-1.67;81.74;102212.25;4860336;29;19952;-80
2024/01/07 15:07:46;;;;;;;;;;;;;;;-1.59;84.97;102217.16;4865815;29;19932;-79
2024/01/07 15:10:21;;;;;;;;;;;;;;;-1.46;90.34;102218.16;4855768;29;19924;-79
2024/01/07 15:12:49;;;;;;;;;;;;;;;-1.43;91.50;102220.66;4877840;23;19932;-79
2024/01/07 15:15:22;;;;;;;;;;;;;;;-1.40;93.44;102212.53;4876696;29;20031;-79
2024/01/07 15:17:47;;;;;;;;;;;;;;;-1.51;92.53;102216.72;4879833;29;19924;-80
2024/01/07 15:20:12;;;;;;;;;;;;;;;-1.56;92.16;102224.88;4880891;29;20389;-79
2024/01/07 15:22:38;;;;;;;;;;;;;;;-1.81;87.36;102214.78;4880153;29;20338;-78
2024/01/07 15:25:06;;;;;;;;;;;;;;;-1.85;90.97;102222.88;4881198;29;19936;-77
2024/01/07 15:27:32;;;;;;;;;;;;;;;-1.63;98.00;102216.44;4895049;29;19932;-78
2024/01/07 15:29:57;;;;;;;;;;;;;;;-1.84;91.96;102229.84;4900134;29;19916;-79
2024/01/07 15:32:22;;;;;;;;;;;;;;;-1.91;90.03;102232.91;4907528;23;20352;-79
2024/01/07 15:34:50;;;;;;;;;;;;;;;-2.17;86.86;102237.78;4888445;23;19927;-78
2024/01/07 15:37:21;;;;;;;;;;;;;;;-2.39;87.49;102238.88;4909370;23;20243;-80
2024/01/07 15:42:14;;;;;;;;;;;;;;;-2.62;88.55;102247.94;4902685;23;19936;-78
2024/01/07 15:44:39;;;;;;;;;;;;;;;-2.73;88.68;102248.47;4896163;29;20703;-78
2024/01/07 15:47:05;;;;;;;;;;;;;;;-2.79;89.34;102246.09;4894137;29;19943;-77
2024/01/07 15:49:33;;;;;;;;;;;;;;;-2.92;90.55;102246.72;4891368;29;19935;-77
2024/01/07 15:51:58;;;;;;;;;;;;;;;-3.05;91.78;102245.59;4895261;29;19990;-77
2024/01/07 15:54:23;;;;;;;;;;;;;;;-3.06;91.91;102243.91;4895572;29;20017;-77
2024/01/07 15:56:48;;;;;;;;;;;;;;;-3.07;92.04;102252.72;4909336;29;19927;-78
2024/01/07 15:59:14;;;;;;;;;;;;;;;-3.16;92.94;102256.66;4916891;29;19919;-78
2024/01/07 16:01:39;;;;;;;;;;;;;;;-3.18;93.07;102262.94;4900447;29;19923;-78
2024/01/07 16:04:05;;;;;;;;;;;;;;;-3.22;93.20;102257.81;4883915;29;19923;-78
2024/01/07 16:06:30;;;;;;;;;;;;;;;-3.29;93.43;102258.16;4896450;29;19923;-78
2024/01/07 16:09:08;;;;;;;;;;;;;;;-3.34;94.84;102266.25;4894727;29;19967;-78
2024/01/07 16:11:35;;;;;;;;;;;;;;;-3.37;94.63;102262.00;4895441;29;19938;-78
2024/01/07 16:14:10;;;;;;;;;;;;;;;-3.43;95.05;102259.63;4895776;29;20452;-78
2024/01/07 16:16:47;;;;;;;;;;;;;;;-3.48;95.73;102268.66;4895081;29;20440;-78
2024/01/07 16:19:24;;;;;;;;;;;;;;;-3.51;95.68;102270.50;4895578;29;19986;-77
2024/01/07 16:24:39;;;;;;;;;;;;;;;-3.58;96.42;102278.75;4918966;23;19935;-79
2024/01/07 16:27:13;;;;;;;;;;;;;;;-3.58;96.12;102279.63;4915593;29;19959;-78
2024/01/07 16:29:39;;;;;;;;;;;;;;;-3.60;95.78;102286.75;4908111;29;20036;-77
2024/01/07 16:32:04;;;;;;;;;;;;;;;-3.59;95.64;102288.44;4900506;29;20000;-77
2024/01/07 16:34:29;;;;;;;;;;;;;;;-3.62;95.30;102288.59;4900645;29;19919;-78
2024/01/07 16:36:55;;;;;;;;;;;;;;;-3.64;95.03;102294.84;4890740;29;19931;-76
2024/01/07 16:39:26;;;;;;;;;;;;;;;-3.65;95.64;102299.25;4891755;29;20170;-76
2024/01/07 16:42:04;;;;;;;;;;;;;;;-3.69;95.61;102302.94;4892218;29;19927;-76
2024/01/07 16:44:48;;;;;;;;;;;;;;;-3.65;95.99;102299.25;4895637;29;19967;-77
2024/01/07 16:47:13;;;;;;;;;;;;;;;-3.71;96.25;102302.16;4900374;29;19924;-76
2024/01/07 16:49:39;;;;;;;;;;;;;;;-3.67;97.02;102306.34;4899101;29;19934;-74
2024/01/07 16:52:04;;;;;;;;;;;;;;;-3.66;97.35;102313.31;4898822;29;19978;-74
2024/01/07 16:54:29;;;;;;;;;;;;;;;-3.68;98.23;102318.66;4908601;29;19911;-74
2024/01/07 16:56:55;;;;;;;;;;;;;;;-3.69;98.82;102313.44;4911751;29;19924;-73
2024/01/07 16:59:24;;;;;;;;;;;;;;;-3.66;98.98;102313.31;4900668;29;20189;-74
2024/01/07 17:01:49;;;;;;;;;;;;;;;-3.69;99.75;102323.97;4895428;29;19923;-74
2024/01/07 17:04:14;;;;;;;;;;;;;;;-3.74;100.00;102321.56;4895292;29;20300;-74
2024/01/07 17:06:40;;;;;;;;;;;;;;;-3.76;100.00;102328.66;4894026;29;20277;-74
2024/01/07 17:09:05;;;;;;;;;;;;;;;-3.76;100.00;102320.75;4894697;29;20254;-74
2024/01/07 17:11:30;;;;;;;;;;;;;;;-3.78;100.00;102324.41;4894810;29;19927;-74
2024/01/07 17:13:56;;;;;;;;;;;;;;;-3.79;100.00;102334.06;4893129;29;19927;-74
2024/01/07 17:18:49;;;;;;;;;;;;;;;-3.90;100.00;102337.19;4899036;23;19982;-74
2024/01/07 17:21:15;;;;;;;;;;;;;;;-3.87;100.00;102344.06;4892996;29;19935;-74
2024/01/07 17:23:40;;;;;;;;;;;;;;;-3.90;100.00;102347.69;4901807;23;19927;-74
2024/01/07 17:26:05;;;;;;;;;;;;;;;-3.87;100.00;102347.53;4874078;29;19927;-74
2024/01/07 17:28:30;;;;;;;;;;;;;;;-3.85;100.00;102345.69;4874120;29;19931;-74
2024/01/07 17:30:55;;;;;;;;;;;;;;;-3.91;100.00;102356.50;4873532;29;19924;-74
2024/01/07 17:33:22;;;;;;;;;;;;;;;-3.96;100.00;102353.22;4875571;29;19954;-74
2024/01/07 17:35:47;;;;;;;;;;;;;;;-3.96;100.00;102355.84;4873858;29;20042;-74
2024/01/07 17:38:18;;;;;;;;;;;;;;;-3.98;100.00;102360.31;4874093;29;20060;-74
2024/01/07 17:40:43;;;;;;;;;;;;;;;-4.07;100.00;102365.97;4874559;29;19930;-74
2024/01/07 17:43:08;;;;;;;;;;;;;;;-4.08;100.00;102370.34;4873740;29;19928;-74
2024/01/07 17:45:34;;;;;;;;;;;;;;;-4.09;100.00;102368.63;4872895;29;19934;-74
2024/01/07 17:48:02;;;;;;;;;;;;;;;-4.11;100.00;102373.09;4875387;29;19924;-75
2024/01/07 17:50:27;;;;;;;;;;;;;;;-4.15;100.00;102376.81;4874745;29;19923;-75
2024/01/07 17:52:52;;;;;;;;;;;;;;;-4.12;100.00;102380.16;4879060;23;20010;-73
2024/01/07 17:55:39;;;;;;;;;;;;;;;-4.14;100.00;102371.47;4893691;29;19936;-75
2024/01/07 17:58:03;;;;;;;;;;;;;;;-4.11;100.00;102371.34;4892042;29;19928;-76
2024/01/07 18:00:42;;;;;;;;;;;;;;;-4.15;100.00;102380.28;4894755;29;19923;-77
2024/01/07 18:03:07;;;;;;;;;;;;;;;-4.19;100.00;102375.22;4894919;29;19931;-73
2024/01/07 18:05:33;;;;;;;;;;;;;;;-4.14;100.00;102384.63;4894652;29;19923;-77
2024/01/07 18:07:59;;;;;;;;;;;;;;;-4.17;100.00;102387.38;4893585;29;19934;-74
2024/01/07 18:10:24;;;;;;;;;;;;;;;-4.17;100.00;102384.75;4896276;29;19931;-76
2024/01/07 18:12:50;;;;;;;;;;;;;;;-4.15;100.00;102384.69;4895851;29;19935;-75
2024/01/07 18:15:15;;;;;;;;;;;;;;;-4.22;100.00;102388.47;4896391;29;19934;-74